Time;durP1;ratioP1;P1;durP2;ratioP2;P2;SDS_P1;SDS_P2;PMS_P1;PMS_P2;Temp;Humidity;BMP_temperature;BMP_pressure;BME280_temperature;BME280_humidity;BME280_pressure;Samples;Min_cycle;Max_cycle;Signal;HPM_P1;HPM_P2
2022/09/29 00:00:35;;;;;;;4.00;3.28;;;11.30;95.50;;;;;;4968179;28;20034;-75
2022/09/29 00:03:01;;;;;;;4.90;3.55;;;11.30;95.60;;;;;;4969343;28;20039;-75
2022/09/29 00:05:27;;;;;;;4.88;3.53;;;11.30;95.60;;;;;;4965034;28;20039;-75
2022/09/29 00:07:53;;;;;;;4.10;3.35;;;11.30;95.50;;;;;;4979111;28;20085;-75
2022/09/29 00:10:19;;;;;;;4.47;3.53;;;11.30;95.50;;;;;;4970220;28;20415;-75
2022/09/29 00:12:45;;;;;;;6.95;3.35;;;11.30;95.40;;;;;;4964782;28;20392;-75
2022/09/29 00:15:12;;;;;;;5.28;3.55;;;11.30;95.30;;;;;;4970890;28;20398;-75
2022/09/29 00:17:38;;;;;;;4.82;3.65;;;11.30;95.20;;;;;;4974690;28;20768;-75
2022/09/29 00:20:04;;;;;;;5.38;3.67;;;11.30;95.10;;;;;;4968682;28;20122;-75
2022/09/29 00:22:30;;;;;;;5.95;3.25;;;11.20;95.00;;;;;;4971596;28;20113;-75
2022/09/29 00:24:56;;;;;;;4.18;3.50;;;11.20;94.90;;;;;;4971002;28;20039;-75
2022/09/29 00:27:22;;;;;;;7.38;4.47;;;11.10;94.90;;;;;;4972103;28;20042;-75
2022/09/29 00:29:47;;;;;;;5.28;4.53;;;11.10;94.80;;;;;;4971403;28;20031;-74
2022/09/29 00:32:13;;;;;;;4.93;3.88;;;11.00;94.70;;;;;;4976212;28;20401;-75
2022/09/29 00:34:39;;;;;;;5.18;3.90;;;10.90;94.60;;;;;;4968078;28;20038;-75
2022/09/29 00:37:05;;;;;;;5.85;4.03;;;10.90;94.60;;;;;;4971078;28;20391;-75
2022/09/29 00:39:30;;;;;;;5.25;3.90;;;10.80;94.60;;;;;;4970938;28;20026;-75
2022/09/29 00:41:59;;;;;;;6.28;5.10;;;10.70;94.60;;;;;;4969280;28;20846;-75
2022/09/29 00:45:03;;;;;;;7.05;4.43;;;10.70;94.70;;;;;;4970890;28;20113;-75
2022/09/29 00:47:31;;;;;;;6.20;4.13;;;10.60;94.70;;;;;;4964391;28;20045;-75
2022/09/29 00:50:03;;;;;;;7.05;4.97;;;10.50;94.70;;;;;;4970846;28;20038;-74
2022/09/29 00:52:33;;;;;;;6.05;4.18;;;10.40;94.70;;;;;;4969925;28;20034;-75
2022/09/29 00:55:23;;;;;;;7.72;4.18;;;10.40;94.70;;;;;;4957452;28;20039;-74
2022/09/29 00:57:52;;;;;;;6.20;4.35;;;10.30;94.60;;;;;;4966208;28;20050;-75
2022/09/29 01:00:18;;;;;;;4.57;3.45;;;10.20;94.50;;;;;;4970971;28;20046;-75
2022/09/29 01:02:49;;;;;;;6.20;3.90;;;10.20;94.60;;;;;;4972181;28;20038;-75
2022/09/29 01:05:22;;;;;;;5.43;4.03;;;10.10;94.70;;;;;;4970946;28;20042;-75
2022/09/29 01:07:49;;;;;;;6.38;4.57;;;10.10;94.80;;;;;;4971590;28;20034;-75
2022/09/29 01:10:17;;;;;;;5.75;4.10;;;10.10;94.90;;;;;;4976166;28;20172;-75
2022/09/29 01:12:47;;;;;;;7.38;4.53;;;10.00;94.90;;;;;;4969636;28;20549;-75
2022/09/29 01:15:15;;;;;;;7.20;4.90;;;10.00;95.00;;;;;;4967186;28;20045;-75
2022/09/29 01:17:41;;;;;;;5.00;4.20;;;10.00;95.10;;;;;;4969514;28;20034;-75
2022/09/29 01:20:13;;;;;;;6.03;3.80;;;10.00;95.10;;;;;;4970182;28;20038;-74
2022/09/29 01:23:00;;;;;;;7.22;4.53;;;10.00;95.10;;;;;;4971312;28;20042;-75
2022/09/29 01:25:44;;;;;;;6.28;4.47;;;9.90;95.50;;;;;;4964164;28;20085;-75
2022/09/29 01:28:33;;;;;;;7.18;4.38;;;10.00;95.30;;;;;;4961984;28;20053;-75
2022/09/29 01:31:10;;;;;;;6.45;4.32;;;9.90;95.30;;;;;;4970497;28;20038;-75
2022/09/29 01:33:59;;;;;;;9.07;4.57;;;10.00;95.40;;;;;;4966310;28;20030;-75
2022/09/29 01:36:54;;;;;;;7.10;4.07;;;9.90;95.40;;;;;;4959608;28;20411;-75
2022/09/29 01:39:25;;;;;;;8.88;6.00;;;9.90;95.50;;;;;;4970363;28;20077;-75
2022/09/29 01:42:01;;;;;;;7.05;5.57;;;10.00;95.70;;;;;;4970328;28;20038;-75
2022/09/29 01:44:29;;;;;;;12.80;6.50;;;10.00;95.70;;;;;;4967609;28;20042;-75
2022/09/29 01:47:02;;;;;;;10.38;6.40;;;10.10;95.80;;;;;;4972090;28;20465;-75
2022/09/29 01:49:33;;;;;;;9.30;6.03;;;10.10;95.80;;;;;;4973227;28;20070;-75
2022/09/29 01:52:16;;;;;;;8.32;5.35;;;10.00;95.80;;;;;;4972679;28;20465;-75
2022/09/29 01:54:51;;;;;;;8.40;5.72;;;10.00;95.90;;;;;;4963001;28;20041;-75
2022/09/29 01:57:24;;;;;;;7.97;5.60;;;10.00;95.80;;;;;;4967429;28;20213;-75
2022/09/29 02:00:04;;;;;;;7.97;5.55;;;10.00;95.80;;;;;;4967497;28;20027;-75
2022/09/29 02:02:46;;;;;;;;;;;10.00;95.80;;;;;;4976040;28;20470;-76
2022/09/29 02:05:26;;;;;;;7.93;5.50;;;10.00;95.70;;;;;;4966784;28;20531;-75
2022/09/29 02:07:55;;;;;;;7.30;4.82;;;10.00;95.80;;;;;;4965872;28;20031;-76
2022/09/29 02:10:31;;;;;;;10.20;6.10;;;10.10;95.80;;;;;;4972457;28;20035;-75
2022/09/29 02:12:59;;;;;;;7.70;4.97;;;10.10;95.80;;;;;;4972209;28;20037;-75
2022/09/29 02:15:29;;;;;;;6.65;4.57;;;10.10;95.70;;;;;;4977455;28;20038;-75
2022/09/29 02:18:01;;;;;;;7.97;4.72;;;10.20;95.80;;;;;;4969494;28;20488;-75
2022/09/29 02:20:27;;;;;;;9.88;6.63;;;10.20;95.80;;;;;;4972241;28;20039;-75
2022/09/29 02:22:54;;;;;;;10.90;6.68;;;10.20;95.80;;;;;;4977873;28;20487;-76
2022/09/29 02:25:21;;;;;;;10.45;6.63;;;10.30;95.70;;;;;;4968079;28;20399;-75
2022/09/29 02:27:49;;;;;;;11.45;6.47;;;10.30;95.70;;;;;;4975184;28;20069;-75
2022/09/29 02:30:15;;;;;;;9.75;5.95;;;10.30;95.60;;;;;;4966022;28;20554;-75
2022/09/29 02:32:41;;;;;;;8.98;5.80;;;10.30;95.50;;;;;;4968004;28;20030;-75
2022/09/29 02:35:10;;;;;;;9.57;6.13;;;10.30;95.50;;;;;;4971677;28;20061;-75
2022/09/29 02:38:02;;;;;;;5.93;4.18;;;10.40;95.50;;;;;;4974695;28;20133;-74
2022/09/29 02:40:44;;;;;;;8.25;5.63;;;10.40;95.50;;;;;;4976776;28;20074;-75
2022/09/29 02:43:29;;;;;;;8.02;5.50;;;10.40;95.40;;;;;;4981242;28;20045;-75
2022/09/29 02:46:04;;;;;;;11.63;6.45;;;10.50;95.30;;;;;;4976332;28;20365;-75
2022/09/29 02:48:56;;;;;;;9.80;5.78;;;10.50;95.10;;;;;;4978224;28;20093;-75
2022/09/29 02:51:46;;;;;;;8.50;5.40;;;10.50;95.10;;;;;;4968831;28;20572;-76
2022/09/29 02:54:21;;;;;;;8.38;6.05;;;10.40;95.20;;;;;;4981794;28;20069;-75
2022/09/29 02:57:08;;;;;;;9.30;6.20;;;10.50;95.20;;;;;;4971940;28;20046;-75
2022/09/29 03:00:07;;;;;;;6.97;5.35;;;10.50;95.20;;;;;;4981773;28;20030;-75
2022/09/29 03:02:33;;;;;;;10.40;6.55;;;10.50;95.20;;;;;;4975617;28;20483;-75
2022/09/29 03:04:59;;;;;;;9.60;6.00;;;10.50;95.20;;;;;;4983764;28;20046;-75
2022/09/29 03:07:24;;;;;;;8.57;5.53;;;10.50;95.10;;;;;;4974045;28;20105;-74
2022/09/29 03:09:50;;;;;;;7.50;4.88;;;10.50;95.20;;;;;;4975915;28;20470;-75
2022/09/29 03:12:17;;;;;;;8.82;6.00;;;10.50;95.20;;;;;;4976512;28;20038;-75
2022/09/29 03:14:43;;;;;;;8.10;5.88;;;10.50;95.30;;;;;;4973587;28;20162;-75
2022/09/29 03:17:09;;;;;;;9.40;6.22;;;10.60;95.30;;;;;;4976119;28;20121;-75
2022/09/29 03:19:35;;;;;;;8.50;5.93;;;10.60;95.20;;;;;;4983325;28;20132;-76
2022/09/29 03:22:00;;;;;;;8.48;5.60;;;10.60;95.40;;;;;;4973540;28;20638;-75
2022/09/29 03:24:27;;;;;;;8.13;5.70;;;10.60;95.10;;;;;;4977133;28;20054;-75
2022/09/29 03:26:53;;;;;;;9.60;5.97;;;10.60;95.20;;;;;;4978423;28;20034;-75
2022/09/29 03:29:19;;;;;;;8.15;5.88;;;10.60;95.20;;;;;;4980107;28;20723;-76
2022/09/29 03:31:44;;;;;;;7.20;5.40;;;10.60;95.20;;;;;;4978516;28;20029;-75
2022/09/29 03:34:10;;;;;;;8.25;5.70;;;10.70;95.10;;;;;;4974825;28;20027;-75
2022/09/29 03:36:36;;;;;;;9.35;6.18;;;10.70;95.10;;;;;;4977769;28;20145;-75
2022/09/29 03:39:02;;;;;;;12.43;7.20;;;10.70;95.00;;;;;;4976064;28;20144;-75
2022/09/29 03:41:27;;;;;;;9.13;5.68;;;10.60;95.20;;;;;;4977489;28;20045;-73
2022/09/29 03:43:53;;;;;;;9.50;5.30;;;10.60;95.20;;;;;;4970676;28;20066;-75
2022/09/29 03:46:19;;;;;;;11.13;7.15;;;10.60;95.30;;;;;;4975353;28;20042;-75
2022/09/29 03:48:45;;;;;;;9.25;6.45;;;10.70;95.30;;;;;;4970213;28;20380;-75
2022/09/29 03:51:10;;;;;;;9.38;5.43;;;10.70;95.30;;;;;;4973022;28;20478;-75
2022/09/29 03:53:36;;;;;;;9.57;6.10;;;10.70;95.30;;;;;;4975498;28;20058;-75
2022/09/29 03:56:02;;;;;;;9.93;5.93;;;10.70;95.30;;;;;;4968930;28;20101;-75
2022/09/29 03:58:28;;;;;;;7.65;5.10;;;10.70;95.10;;;;;;4968576;28;20031;-75
2022/09/29 04:00:54;;;;;;;8.93;5.72;;;10.70;95.20;;;;;;4970005;28;20113;-75
2022/09/29 04:03:20;;;;;;;8.85;5.68;;;10.70;95.10;;;;;;4970796;28;20426;-75
2022/09/29 04:05:47;;;;;;;9.85;6.05;;;10.70;95.10;;;;;;4968160;28;20031;-75
2022/09/29 04:08:14;;;;;;;8.68;5.80;;;10.70;95.10;;;;;;4974549;28;20045;-75
2022/09/29 04:10:40;;;;;;;12.18;6.40;;;10.70;95.20;;;;;;4974192;28;20042;-75
2022/09/29 04:13:07;;;;;;;11.30;6.10;;;10.70;95.20;;;;;;4972317;28;20066;-75
2022/09/29 04:15:33;;;;;;;8.70;5.47;;;10.70;95.10;;;;;;4972646;28;20059;-75
2022/09/29 04:17:58;;;;;;;10.70;6.47;;;10.70;95.00;;;;;;4975025;28;20938;-75
2022/09/29 04:20:25;;;;;;;10.48;5.72;;;10.70;95.00;;;;;;4965108;28;20125;-75
2022/09/29 04:22:51;;;;;;;7.70;5.05;;;10.70;95.10;;;;;;4973454;28;20145;-75
2022/09/29 04:25:17;;;;;;;10.02;6.68;;;10.70;95.10;;;;;;4969189;28;20778;-75
2022/09/29 04:27:43;;;;;;;10.25;6.72;;;10.70;95.20;;;;;;4968620;28;20038;-75
2022/09/29 04:30:09;;;;;;;11.10;6.53;;;10.70;95.20;;;;;;4978189;28;20069;-75
2022/09/29 04:32:35;;;;;;;8.77;5.78;;;10.70;95.20;;;;;;4976761;28;20117;-75
2022/09/29 04:35:02;;;;;;;12.85;7.05;;;10.70;95.20;;;;;;4968896;28;20134;-75
2022/09/29 04:37:27;;;;;;;10.18;7.00;;;10.70;95.30;;;;;;4976016;28;20035;-75
2022/09/29 04:39:53;;;;;;;11.60;6.95;;;10.70;95.30;;;;;;4968129;28;20030;-75
2022/09/29 04:42:20;;;;;;;13.15;6.97;;;10.60;95.30;;;;;;4969441;28;20217;-76
2022/09/29 04:44:45;;;;;;;9.70;6.57;;;10.60;95.40;;;;;;4970889;28;20904;-75
2022/09/29 04:47:12;;;;;;;10.68;6.22;;;10.70;95.40;;;;;;4968750;28;20038;-75
2022/09/29 04:49:38;;;;;;;9.52;6.05;;;10.70;95.40;;;;;;4969384;28;20088;-75
2022/09/29 04:52:03;;;;;;;8.63;5.85;;;10.70;95.40;;;;;;4971020;28;20039;-75
2022/09/29 04:54:31;;;;;;;11.95;6.63;;;10.70;95.50;;;;;;4969542;28;20831;-75
2022/09/29 04:56:57;;;;;;;12.40;7.63;;;10.70;95.60;;;;;;4967349;28;20039;-76
2022/09/29 04:59:22;;;;;;;14.23;7.68;;;10.70;95.60;;;;;;4969787;28;20403;-76
2022/09/29 05:01:48;;;;;;;11.27;7.22;;;10.70;95.60;;;;;;4966576;28;20497;-75
2022/09/29 05:04:14;;;;;;;12.43;8.25;;;10.70;95.60;;;;;;4964214;28;20034;-75
2022/09/29 05:06:40;;;;;;;15.48;8.65;;;10.70;95.60;;;;;;4969153;28;20088;-75
2022/09/29 05:09:06;;;;;;;11.13;6.97;;;10.70;95.60;;;;;;4968613;28;20038;-75
2022/09/29 05:11:32;;;;;;;15.73;8.07;;;10.80;95.50;;;;;;4972518;28;20027;-76
2022/09/29 05:13:59;;;;;;;12.13;7.35;;;10.80;95.40;;;;;;4973171;28;20041;-76
2022/09/29 05:16:25;;;;;;;11.32;7.20;;;10.80;95.20;;;;;;4970981;28;20098;-77
2022/09/29 05:18:51;;;;;;;11.30;6.40;;;10.80;95.20;;;;;;4968221;28;20054;-76
2022/09/29 05:21:17;;;;;;;12.82;8.23;;;10.70;95.20;;;;;;4970884;28;20543;-76
2022/09/29 05:23:43;;;;;;;11.85;7.25;;;10.70;95.10;;;;;;4966222;28;20034;-77
2022/09/29 05:26:10;;;;;;;11.85;6.70;;;10.70;95.20;;;;;;4963702;28;20121;-76
2022/09/29 05:28:38;;;;;;;10.65;6.68;;;10.70;95.30;;;;;;4969209;28;20100;-76
2022/09/29 05:31:05;;;;;;;9.27;6.28;;;10.70;95.30;;;;;;4966838;28;20066;-76
2022/09/29 05:33:31;;;;;;;11.07;6.85;;;10.70;95.30;;;;;;4969581;28;20117;-76
2022/09/29 05:35:57;;;;;;;11.05;6.68;;;10.70;95.30;;;;;;4970989;28;20603;-76
2022/09/29 05:38:24;;;;;;;10.55;5.90;;;10.70;95.30;;;;;;4972583;28;20122;-76
2022/09/29 05:40:51;;;;;;;10.73;6.53;;;10.70;95.40;;;;;;4965931;28;20502;-77
2022/09/29 05:43:17;;;;;;;12.85;7.30;;;10.60;95.40;;;;;;4967009;28;20026;-76
2022/09/29 05:45:43;;;;;;;9.82;6.43;;;10.70;95.60;;;;;;4967586;28;20070;-76
2022/09/29 05:48:09;;;;;;;14.68;6.70;;;10.70;95.60;;;;;;4971084;28;20150;-76
2022/09/29 05:50:40;;;;;;;12.68;7.72;;;10.70;95.60;;;;;;4970271;28;20045;-76
2022/09/29 05:53:12;;;;;;;14.68;7.80;;;10.70;95.70;;;;;;4957177;28;20050;-76
2022/09/29 05:55:38;;;;;;;9.77;6.28;;;10.70;95.60;;;;;;4968066;28;20039;-76
2022/09/29 05:58:05;;;;;;;10.52;6.53;;;10.80;95.60;;;;;;4969535;28;20080;-76
2022/09/29 06:00:31;;;;;;;15.02;7.70;;;10.80;95.60;;;;;;4967924;28;20042;-75
2022/09/29 06:02:58;;;;;;;12.57;7.72;;;10.80;95.70;;;;;;4965602;28;20026;-75
2022/09/29 06:05:25;;;;;;;11.70;7.40;;;10.80;95.70;;;;;;4965733;28;20078;-75
2022/09/29 06:07:51;;;;;;;10.10;6.22;;;10.80;95.60;;;;;;4964908;28;20114;-75
2022/09/29 06:10:17;;;;;;;12.13;7.45;;;10.90;95.50;;;;;;4962537;28;20035;-76
2022/09/29 06:12:44;;;;;;;10.75;6.68;;;10.90;95.50;;;;;;4969294;28;20779;-76
2022/09/29 06:15:10;;;;;;;11.52;6.82;;;10.90;95.40;;;;;;4967737;28;20074;-76
2022/09/29 06:17:36;;;;;;;11.05;7.07;;;11.00;95.30;;;;;;4968193;28;20819;-76
2022/09/29 06:20:04;;;;;;;11.90;6.88;;;11.00;95.20;;;;;;4972654;28;20026;-76
2022/09/29 06:22:30;;;;;;;13.00;6.95;;;11.00;95.20;;;;;;4965348;28;20039;-76
2022/09/29 06:24:56;;;;;;;10.25;6.70;;;11.00;95.10;;;;;;4973039;28;20041;-76
2022/09/29 06:27:22;;;;;;;12.27;7.60;;;11.00;95.10;;;;;;4970221;28;20037;-76
2022/09/29 06:29:47;;;;;;;16.52;8.15;;;11.00;95.00;;;;;;4974406;28;20030;-77
2022/09/29 06:32:13;;;;;;;11.95;7.38;;;11.10;95.10;;;;;;4966488;28;20041;-76
2022/09/29 06:37:33;;;;;;;14.07;7.45;;;11.10;95.00;;;;;;4972938;28;20035;-77
2022/09/29 06:37:34;;;;;;;13.27;7.88;;;11.10;95.00;;;;;;4963029;28;20236;-76
2022/09/29 06:40:04;;;;;;;14.05;7.57;;;11.20;95.10;;;;;;4970231;28;20031;-76
2022/09/29 06:42:30;;;;;;;14.32;8.13;;;11.20;95.00;;;;;;4970041;28;20035;-76
2022/09/29 06:44:56;;;;;;;15.00;8.55;;;11.20;95.00;;;;;;4969348;28;20035;-76
2022/09/29 06:47:22;;;;;;;15.40;9.98;;;11.30;95.00;;;;;;4970167;28;20038;-77
2022/09/29 06:49:49;;;;;;;19.63;9.35;;;11.30;95.00;;;;;;4970688;28;20212;-76
2022/09/29 06:52:15;;;;;;;16.25;9.38;;;11.30;94.80;;;;;;4962836;28;20035;-76
2022/09/29 06:54:41;;;;;;;19.42;9.02;;;11.30;95.00;;;;;;4966542;28;20487;-75
2022/09/29 06:57:08;;;;;;;15.15;8.48;;;11.30;94.90;;;;;;4965402;28;20038;-75
2022/09/29 06:59:34;;;;;;;14.98;7.95;;;11.40;95.10;;;;;;4963602;28;20105;-75
2022/09/29 07:02:00;;;;;;;13.43;8.25;;;11.40;95.10;;;;;;4971325;28;20121;-75
2022/09/29 07:04:26;;;;;;;15.73;9.45;;;11.50;95.10;;;;;;4968419;28;20434;-75
2022/09/29 07:06:52;;;;;;;15.20;8.52;;;11.50;95.00;;;;;;4968019;28;20035;-75
2022/09/29 07:09:18;;;;;;;14.98;9.45;;;11.60;94.90;;;;;;4968588;28;20042;-75
2022/09/29 07:11:50;;;;;;;17.88;10.07;;;11.60;94.70;;;;;;4969039;28;20031;-75
2022/09/29 07:14:17;;;;;;;16.75;10.68;;;11.60;94.70;;;;;;4970314;28;20073;-75
2022/09/29 07:16:43;;;;;;;19.42;9.75;;;11.70;94.50;;;;;;4969568;28;20504;-75
2022/09/29 07:19:09;;;;;;;20.35;10.82;;;11.70;94.20;;;;;;4966283;28;20742;-76
2022/09/29 07:21:35;;;;;;;17.50;9.52;;;11.70;94.20;;;;;;4971408;28;20110;-75
2022/09/29 07:24:01;;;;;;;16.85;9.13;;;11.80;94.10;;;;;;4969276;28;20133;-77
2022/09/29 07:26:27;;;;;;;18.27;10.70;;;11.80;94.20;;;;;;4973254;28;20035;-77
2022/09/29 07:28:52;;;;;;;18.95;10.85;;;11.80;94.20;;;;;;4969091;28;20549;-76
2022/09/29 07:31:20;;;;;;;18.08;10.00;;;11.80;94.20;;;;;;4976123;28;20038;-75
2022/09/29 07:33:48;;;;;;;17.55;9.95;;;11.80;94.20;;;;;;4972873;28;20045;-75
2022/09/29 07:36:16;;;;;;;18.10;10.45;;;11.80;94.20;;;;;;4965534;28;20035;-75
2022/09/29 07:38:45;;;;;;;17.35;10.40;;;11.80;94.30;;;;;;4971799;28;20034;-75
2022/09/29 07:41:11;;;;;;;16.08;9.82;;;11.90;94.00;;;;;;4974707;28;20046;-77
2022/09/29 07:43:37;;;;;;;19.13;10.98;;;12.00;93.90;;;;;;4978828;28;20824;-76
2022/09/29 07:46:04;;;;;;;18.55;10.73;;;12.10;93.50;;;;;;4967741;28;20112;-76
2022/09/29 07:48:31;;;;;;;16.73;10.40;;;12.20;93.30;;;;;;4970186;28;20062;-76
2022/09/29 07:51:15;;;;;;;18.27;10.55;;;12.20;93.30;;;;;;4965913;28;20053;-75
2022/09/29 07:53:41;;;;;;;20.65;11.68;;;12.20;93.60;;;;;;4962475;28;20034;-76
2022/09/29 07:56:10;;;;;;;18.40;10.68;;;12.30;93.60;;;;;;4970145;28;20918;-74
2022/09/29 07:58:37;;;;;;;17.67;10.25;;;12.40;93.00;;;;;;4973388;28;20109;-76
2022/09/29 08:01:05;;;;;;;19.52;11.50;;;12.50;92.80;;;;;;4975259;28;20042;-73
2022/09/29 08:03:32;;;;;;;22.33;12.20;;;12.50;92.80;;;;;;4974988;28;20477;-73
2022/09/29 08:05:58;;;;;;;17.27;10.50;;;12.60;92.90;;;;;;4968087;28;20081;-73
2022/09/29 08:08:24;;;;;;;19.52;11.68;;;12.60;92.80;;;;;;4969759;28;20125;-74
2022/09/29 08:10:50;;;;;;;21.58;12.20;;;12.70;92.50;;;;;;4968884;28;20089;-74
2022/09/29 08:13:17;;;;;;;19.38;11.63;;;12.80;92.10;;;;;;4967051;28;20030;-72
2022/09/29 08:15:42;;;;;;;18.92;11.40;;;12.80;91.90;;;;;;4973006;28;20044;-74
2022/09/29 08:18:08;;;;;;;22.20;11.52;;;12.90;91.60;;;;;;4972125;28;20487;-72
2022/09/29 08:20:35;;;;;;;17.13;10.35;;;12.90;91.70;;;;;;4965172;28;20035;-73
2022/09/29 08:23:00;;;;;;;18.10;11.00;;;13.00;91.90;;;;;;4972293;28;20077;-74
2022/09/29 08:25:26;;;;;;;18.17;10.45;;;13.00;92.10;;;;;;4971273;28;20700;-73
2022/09/29 08:27:52;;;;;;;16.90;10.35;;;13.10;92.10;;;;;;4968199;28;20148;-78
2022/09/29 08:30:19;;;;;;;17.83;10.77;;;13.10;92.00;;;;;;4972851;28;20034;-78
2022/09/29 08:32:51;;;;;;;16.75;10.60;;;13.20;91.90;;;;;;4973134;28;20057;-75
2022/09/29 08:35:16;;;;;;;15.65;10.00;;;13.30;91.60;;;;;;4968832;28;20333;-75
2022/09/29 08:37:42;;;;;;;15.88;9.38;;;13.30;91.30;;;;;;4967889;28;20069;-78
2022/09/29 08:40:09;;;;;;;18.77;11.40;;;13.40;91.20;;;;;;4973531;28;20747;-77
2022/09/29 08:42:41;;;;;;;19.23;11.27;;;13.40;91.10;;;;;;4965733;28;20105;-75
2022/09/29 08:45:17;;;;;;;16.15;10.80;;;13.60;91.10;;;;;;4969775;28;20041;-73
2022/09/29 08:47:48;;;;;;;17.02;10.70;;;13.60;90.90;;;;;;4964852;28;20030;-73
2022/09/29 08:50:30;;;;;;;15.18;9.63;;;13.70;90.90;;;;;;4970535;28;20129;-72
2022/09/29 08:53:05;;;;;;;15.57;10.32;;;13.70;90.60;;;;;;4971185;28;20035;-72
2022/09/29 08:55:51;;;;;;;17.20;10.00;;;13.90;90.70;;;;;;4964490;28;20562;-73
2022/09/29 08:58:18;;;;;;;17.90;10.48;;;13.90;90.50;;;;;;4968162;28;20100;-78
2022/09/29 09:01:02;;;;;;;15.60;9.75;;;14.10;90.10;;;;;;4972656;28;20042;-72
2022/09/29 09:03:40;;;;;;;16.25;9.95;;;14.00;90.10;;;;;;4974614;28;20043;-76
2022/09/29 09:06:45;;;;;;;16.70;10.30;;;14.10;90.50;;;;;;4968918;28;20808;-76
2022/09/29 09:10:02;;;;;;;27.63;13.55;;;14.20;90.20;;;;;;4965244;28;20038;-77
2022/09/29 09:12:53;;;;;;;15.97;9.53;;;14.30;89.10;;;;;;4906600;28;20085;-75
2022/09/29 09:15:30;;;;;;;16.38;9.40;;;14.30;88.80;;;;;;4969046;28;20044;-76
2022/09/29 09:18:23;;;;;;;14.50;9.07;;;14.40;89.20;;;;;;4968978;28;20076;-75
2022/09/29 09:20:59;;;;;;;17.30;11.85;;;14.50;88.30;;;;;;4967167;28;20845;-76
2022/09/29 09:23:33;;;;;;;13.85;8.88;;;14.60;87.50;;;;;;4969526;28;20165;-77
2022/09/29 09:26:02;;;;;;;17.38;9.73;;;14.60;87.10;;;;;;4959633;28;20066;-76
2022/09/29 09:28:41;;;;;;;15.80;9.73;;;14.60;86.40;;;;;;4970050;28;20049;-76
2022/09/29 09:31:16;;;;;;;23.88;13.52;;;14.60;86.70;;;;;;4971315;28;20045;-76
2022/09/29 09:33:51;;;;;;;14.25;9.02;;;14.60;86.40;;;;;;4976265;28;20026;-80
2022/09/29 09:36:23;;;;;;;14.87;8.80;;;14.60;86.40;;;;;;4965054;28;20050;-75
2022/09/29 09:38:53;;;;;;;13.02;9.18;;;14.60;85.60;;;;;;4966356;28;20041;-75
2022/09/29 09:41:22;;;;;;;14.80;8.68;;;14.70;85.50;;;;;;4966727;28;20073;-76
2022/09/29 09:43:53;;;;;;;16.10;8.35;;;14.80;85.90;;;;;;4983476;28;20042;-74
2022/09/29 09:46:26;;;;;;;12.30;8.05;;;14.80;84.40;;;;;;4964679;28;20120;-75
2022/09/29 09:49:35;;;;;;;12.88;8.00;;;14.80;84.70;;;;;;4968070;28;20039;-74
2022/09/29 09:52:13;;;;;;;12.25;7.40;;;14.80;84.40;;;;;;4918282;29;20036;-75
2022/09/29 09:54:43;;;;;;;11.65;6.82;;;14.80;84.80;;;;;;4959468;28;20074;-75
2022/09/29 09:57:39;;;;;;;9.48;6.03;;;14.80;85.00;;;;;;4964807;28;20077;-75
2022/09/29 10:00:17;;;;;;;9.90;7.05;;;14.90;84.50;;;;;;4970882;28;20508;-75
2022/09/29 10:02:49;;;;;;;8.88;6.07;;;15.00;83.60;;;;;;4969628;28;20038;-75
2022/09/29 10:05:36;;;;;;;7.15;5.43;;;15.00;83.10;;;;;;4971307;28;20388;-75
2022/09/29 10:08:03;;;;;;;13.45;5.93;;;15.00;83.20;;;;;;4965218;28;20027;-75
2022/09/29 10:10:30;;;;;;;7.15;4.85;;;15.10;83.90;;;;;;4966314;28;20046;-75
2022/09/29 10:13:01;;;;;;;7.22;4.45;;;15.30;82.80;;;;;;4963492;28;20035;-76
2022/09/29 10:15:41;;;;;;;7.75;4.95;;;15.50;80.20;;;;;;4962464;28;20046;-74
2022/09/29 10:18:17;;;;;;;7.43;5.22;;;16.10;78.50;;;;;;4966739;28;20038;-74
2022/09/29 10:20:43;;;;;;;8.05;5.07;;;17.10;76.10;;;;;;4969125;28;20035;-74
2022/09/29 10:23:26;;;;;;;6.05;4.20;;;17.90;73.20;;;;;;4968575;28;20076;-75
2022/09/29 10:26:14;;;;;;;9.52;4.90;;;19.30;67.40;;;;;;4963748;28;20497;-74
2022/09/29 10:28:48;;;;;;;5.63;4.13;;;20.20;62.50;;;;;;4964299;28;20051;-77
2022/09/29 10:31:25;;;;;;;4.70;3.70;;;19.50;63.30;;;;;;4967461;28;20125;-78
2022/09/29 10:33:58;;;;;;;5.55;4.20;;;18.80;66.00;;;;;;4976895;28;20503;-77
2022/09/29 10:36:28;;;;;;;5.03;3.53;;;18.30;65.90;;;;;;4973996;28;20034;-76
2022/09/29 10:38:57;;;;;;;6.50;4.28;;;17.80;67.70;;;;;;4971011;28;20182;-75
2022/09/29 10:41:24;;;;;;;4.57;3.47;;;17.70;68.60;;;;;;4968463;28;20108;-76
2022/09/29 10:43:51;;;;;;;6.53;4.28;;;17.90;67.30;;;;;;4972121;28;20045;-77
2022/09/29 10:46:36;;;;;;;5.95;4.43;;;17.70;67.00;;;;;;4964632;28;20133;-75
2022/09/29 10:49:15;;;;;;;4.80;3.63;;;17.60;66.00;;;;;;4970588;28;20815;-74
2022/09/29 10:52:21;;;;;;;5.07;3.45;;;17.40;66.60;;;;;;4964765;28;20030;-76
2022/09/29 10:55:04;;;;;;;4.78;3.25;;;17.00;67.30;;;;;;4967558;28;20030;-75
2022/09/29 10:57:32;;;;;;;5.22;3.40;;;16.60;69.20;;;;;;4972656;28;20038;-76
2022/09/29 10:59:59;;;;;;;5.45;3.60;;;16.40;70.20;;;;;;4973772;28;20152;-76
2022/09/29 11:02:25;;;;;;;6.50;3.28;;;16.10;72.10;;;;;;4972321;28;20031;-76
2022/09/29 11:04:52;;;;;;;6.07;4.00;;;16.00;73.70;;;;;;4972621;28;20042;-76
2022/09/29 11:07:18;;;;;;;4.40;3.15;;;15.90;75.90;;;;;;4969463;28;20035;-76
2022/09/29 11:09:44;;;;;;;4.50;3.28;;;15.70;75.50;;;;;;4972901;28;20031;-76
2022/09/29 11:12:27;;;;;;;4.85;3.17;;;15.70;75.70;;;;;;4973546;28;20038;-75
2022/09/29 11:14:53;;;;;;;6.72;4.70;;;15.60;76.90;;;;;;4969953;28;20030;-76
2022/09/29 11:17:23;;;;;;;5.38;4.05;;;15.50;76.00;;;;;;4970583;28;20105;-76
2022/09/29 11:19:50;;;;;;;4.47;3.60;;;15.40;76.20;;;;;;4971403;28;20039;-75
2022/09/29 11:22:41;;;;;;;6.70;4.32;;;15.30;76.50;;;;;;4971991;28;20068;-76
2022/09/29 11:25:51;;;;;;;4.28;3.22;;;15.10;74.10;;;;;;4972388;28;20045;-76
2022/09/29 11:28:48;;;;;;;4.47;3.38;;;15.00;76.80;;;;;;4944351;28;20185;-68
2022/09/29 11:31:30;;;;;;;5.68;3.40;;;15.00;78.70;;;;;;4969142;28;20023;-66
2022/09/29 11:34:29;;;;;;;6.45;3.17;;;14.90;79.70;;;;;;4974433;28;20403;-76
2022/09/29 11:37:24;;;;;;;4.40;2.80;;;14.80;80.00;;;;;;4969214;28;20041;-79
2022/09/29 11:39:56;;;;;;;4.30;3.20;;;14.80;80.70;;;;;;4961117;28;20047;-76
2022/09/29 11:42:49;;;;;;;3.55;2.92;;;15.00;78.30;;;;;;4968038;28;20088;-76
2022/09/29 11:45:22;;;;;;;3.50;2.85;;;15.20;73.90;;;;;;4975706;28;20030;-76
2022/09/29 11:48:23;;;;;;;2.65;2.05;;;15.40;73.30;;;;;;4973264;28;20046;-76
2022/09/29 11:51:04;;;;;;;2.25;1.95;;;15.60;70.00;;;;;;4968641;28;20657;-76
2022/09/29 11:54:06;;;;;;;3.35;1.98;;;15.70;69.70;;;;;;4971784;28;20026;-74
2022/09/29 11:57:01;;;;;;;1.73;1.63;;;15.80;70.80;;;;;;4971636;28;20035;-75
2022/09/29 12:00:07;;;;;;;4.75;2.67;;;16.00;66.50;;;;;;4971640;28;20034;-74
2022/09/29 12:02:52;;;;;;;1.50;1.40;;;16.30;66.20;;;;;;4973071;28;20122;-74
2022/09/29 12:05:32;;;;;;;2.72;1.77;;;16.50;66.90;;;;;;4961549;28;20482;-78
2022/09/29 12:08:33;;;;;;;3.90;1.75;;;16.60;66.00;;;;;;4970436;28;20039;-76
2022/09/29 12:11:22;;;;;;;2.22;2.03;;;16.50;66.70;;;;;;4897791;29;20127;-76
2022/09/29 12:14:07;;;;;;;3.17;2.00;;;16.50;67.00;;;;;;4972617;28;20119;-76
2022/09/29 12:16:38;;;;;;;1.92;1.70;;;16.40;67.20;;;;;;4970312;28;20077;-76
2022/09/29 12:19:19;;;;;;;2.08;1.70;;;16.30;67.50;;;;;;4970816;28;20030;-76
2022/09/29 12:21:49;;;;;;;1.60;1.40;;;16.20;67.50;;;;;;4970138;28;20983;-76
2022/09/29 12:24:34;;;;;;;2.28;2.00;;;16.20;67.70;;;;;;4968529;28;20034;-77
2022/09/29 12:27:03;;;;;;;3.05;1.75;;;16.20;68.00;;;;;;4965289;28;20038;-75
2022/09/29 12:29:47;;;;;;;2.20;1.73;;;16.20;69.00;;;;;;4972995;28;20042;-70
2022/09/29 12:32:20;;;;;;;1.75;1.50;;;16.30;67.90;;;;;;4976207;28;20038;-75
2022/09/29 12:34:57;;;;;;;1.45;1.35;;;16.30;67.10;;;;;;4970122;28;20089;-75
2022/09/29 12:37:46;;;;;;;1.73;1.63;;;16.30;67.80;;;;;;4964923;28;20038;-74
2022/09/29 12:40:46;;;;;;;2.20;1.48;;;16.30;68.50;;;;;;4968794;28;20061;-74
2022/09/29 12:43:51;;;;;;;2.15;1.23;;;16.40;66.90;;;;;;4937190;28;20763;-74
2022/09/29 12:46:36;;;;;;;1.95;1.40;;;16.40;65.70;;;;;;4924064;29;20039;-74
2022/09/29 12:49:15;;;;;;;2.65;1.33;;;16.40;66.00;;;;;;4961129;28;20050;-74
2022/09/29 12:51:51;;;;;;;2.97;1.40;;;16.50;66.30;;;;;;4965501;28;20491;-75
2022/09/29 12:54:24;;;;;;;2.30;1.42;;;16.60;64.60;;;;;;4966525;28;20027;-75
2022/09/29 12:57:01;;;;;;;2.20;1.30;;;16.70;65.60;;;;;;4962577;28;20034;-77
2022/09/29 12:59:48;;;;;;;1.10;1.00;;;16.60;65.20;;;;;;4968442;28;20637;-76
2022/09/29 13:02:59;;;;;;;0.85;0.85;;;16.50;66.40;;;;;;4972503;28;20049;-77
2022/09/29 13:05:47;;;;;;;2.33;1.20;;;16.40;67.30;;;;;;4954871;28;20093;-75
2022/09/29 13:08:19;;;;;;;1.85;1.58;;;16.50;66.00;;;;;;4958702;28;20031;-76